createdAt,value
2019-04-26T00:02:18.538Z,17.79
2019-04-26T00:04:50.610Z,17.75
2019-04-26T00:07:24.197Z,17.65
2019-04-26T00:09:58.798Z,17.61
2019-04-26T00:12:42.322Z,17.55
2019-04-26T00:15:32.162Z,17.58
2019-04-26T00:18:04.801Z,17.45
2019-04-26T00:20:36.811Z,17.28
2019-04-26T00:23:10.624Z,17.18
2019-04-26T00:25:42.841Z,17.15
2019-04-26T00:28:14.806Z,17.07
2019-04-26T00:30:47.003Z,17.08
2019-04-26T00:33:19.408Z,17.03
2019-04-26T00:35:51.550Z,16.97
2019-04-26T00:38:23.563Z,16.92
2019-04-26T00:40:56.980Z,16.86
2019-04-26T00:43:31.292Z,16.80
2019-04-26T00:46:05.386Z,16.74
2019-04-26T00:48:39.727Z,16.70
2019-04-26T00:51:12.796Z,16.68
2019-04-26T00:53:47.378Z,16.61
2019-04-26T00:56:20.212Z,16.55
2019-04-26T00:58:52.540Z,16.55
2019-04-26T01:01:26.489Z,16.56
2019-04-26T01:03:58.610Z,16.54
2019-04-26T01:06:32.298Z,16.55
2019-04-26T01:09:05.346Z,16.57
2019-04-26T01:11:37.389Z,16.56
2019-04-26T01:14:10.050Z,16.61
2019-04-26T01:16:42.164Z,16.68
2019-04-26T01:19:15.956Z,16.62
2019-04-26T01:21:54.687Z,16.63
2019-04-26T01:24:28.136Z,16.66
2019-04-26T01:27:02.969Z,16.62
2019-04-26T01:29:37.542Z,16.61
2019-04-26T01:32:13.170Z,16.56
2019-04-26T01:34:47.873Z,16.56
2019-04-26T01:37:20.667Z,16.56
2019-04-26T01:39:58.271Z,16.56
2019-04-26T01:43:07.711Z,16.59
2019-04-26T01:46:01.415Z,16.63
2019-04-26T01:48:47.106Z,16.58
2019-04-26T01:51:37.122Z,16.58
2019-04-26T01:54:10.532Z,16.52
2019-04-26T01:56:42.596Z,16.52
2019-04-26T01:59:17.544Z,16.56
2019-04-26T02:02:07.305Z,16.61
2019-04-26T02:04:42.778Z,16.58
2019-04-26T02:07:16.919Z,16.55
2019-04-26T02:09:48.897Z,16.50
2019-04-26T02:12:22.444Z,16.52
2019-04-26T02:14:55.093Z,16.51
2019-04-26T02:17:27.275Z,16.52
2019-04-26T02:20:00.658Z,16.53
2019-04-26T02:23:09.040Z,16.48
2019-04-26T02:25:41.350Z,16.40
2019-04-26T02:28:13.306Z,16.32
2019-04-26T02:30:45.511Z,16.31
2019-04-26T02:33:17.838Z,16.28
2019-04-26T02:35:49.821Z,16.24
2019-04-26T02:38:22.081Z,16.33
2019-04-26T02:40:55.007Z,16.39
2019-04-26T02:43:28.612Z,16.39
2019-04-26T02:46:22.519Z,16.39
2019-04-26T02:49:21.818Z,16.39
2019-04-26T02:52:37.155Z,16.37
2019-04-26T02:55:27.903Z,16.38
2019-04-26T02:58:01.042Z,16.46
2019-04-26T03:00:35.160Z,16.38
2019-04-26T03:03:09.458Z,16.37
2019-04-26T03:05:44.046Z,16.40
2019-04-26T03:08:19.018Z,16.30
2019-04-26T03:10:59.937Z,16.21
2019-04-26T03:13:56.831Z,16.22
2019-04-26T03:16:44.313Z,16.17
2019-04-26T03:19:40.910Z,16.15
2019-04-26T03:22:44.414Z,16.11
2019-04-26T03:25:28.523Z,16.16
2019-04-26T03:28:43.758Z,16.23
2019-04-26T03:31:52.335Z,16.24
2019-04-26T03:34:38.840Z,16.26
2019-04-26T03:38:05.403Z,16.26
2019-04-26T03:40:57.644Z,16.28
2019-04-26T03:44:04.868Z,16.34
2019-04-26T03:47:03.071Z,16.38
2019-04-26T03:50:18.340Z,16.39
2019-04-26T03:53:13.983Z,16.52
2019-04-26T03:56:48.393Z,16.70
2019-04-26T03:59:55.865Z,16.92
2019-04-26T04:03:10.180Z,16.99
2019-04-26T04:05:48.688Z,17.10
2019-04-26T04:08:30.715Z,17.19
2019-04-26T04:11:09.257Z,17.28
2019-04-26T04:14:00.028Z,17.31
2019-04-26T04:17:17.818Z,17.43
2019-04-26T04:20:56.431Z,17.57
2019-04-26T04:24:16.277Z,17.75
2019-04-26T04:27:23.281Z,17.80
2019-04-26T04:30:27.807Z,18.11
2019-04-26T04:33:29.557Z,18.38
2019-04-26T04:36:19.236Z,18.42
2019-04-26T04:39:21.867Z,19.09
2019-04-26T04:42:45.742Z,19.94
2019-04-26T04:46:05.075Z,20.23
2019-04-26T04:49:32.168Z,19.41
2019-04-26T04:52:53.762Z,18.99
2019-04-26T04:55:50.244Z,18.62
2019-04-26T04:58:34.224Z,18.53
2019-04-26T05:02:29.178Z,18.64
2019-04-26T05:06:07.749Z,18.93
2019-04-26T05:09:07.708Z,19.29
2019-04-26T05:12:19.430Z,20.02
2019-04-26T05:15:41.801Z,21.30
2019-04-26T05:19:27.533Z,22.98
2019-04-26T05:22:40.844Z,24.11
2019-04-26T05:26:37.078Z,25.99
2019-04-26T05:30:04.233Z,26.62
2019-04-26T05:33:25.223Z,27.71
2019-04-26T05:36:59.017Z,30.77
2019-04-26T05:40:47.053Z,32.55
2019-04-26T05:44:15.768Z,31.40
2019-04-26T05:47:40.464Z,31.65
2019-04-26T05:51:31.126Z,34.43
2019-04-26T05:55:11.223Z,35.86
2019-04-26T05:58:30.200Z,35.70
2019-04-26T06:02:08.676Z,35.56
2019-04-26T06:05:16.016Z,34.05
2019-04-26T06:08:43.284Z,33.30
2019-04-26T06:11:29.071Z,34.87
2019-04-26T06:14:36.940Z,38.21
2019-04-26T06:18:24.885Z,39.03
2019-04-26T06:21:34.986Z,38.31
2019-04-26T06:24:32.328Z,37.88
2019-04-26T06:27:49.905Z,39.19
2019-04-26T06:30:45.025Z,42.27
2019-04-26T06:33:45.143Z,44.91
2019-04-26T06:36:25.034Z,47.21
2019-04-26T06:39:37.434Z,48.88
2019-04-26T06:43:44.642Z,49.80
2019-04-26T06:46:56.298Z,51.34
2019-04-26T06:50:10.710Z,52.48
2019-04-26T06:53:01.571Z,53.82
2019-04-26T06:55:49.314Z,54.84
2019-04-26T06:59:08.411Z,56.84
2019-04-26T07:02:08.608Z,58.01
2019-04-26T07:05:15.389Z,56.07
2019-04-26T07:08:57.284Z,55.40
2019-04-26T07:12:34.113Z,54.22
2019-04-26T07:15:37.654Z,53.05
2019-04-26T07:19:13.344Z,52.99
2019-04-26T07:22:50.987Z,52.64
2019-04-26T07:26:16.068Z,53.47
2019-04-26T07:29:30.056Z,51.24
2019-04-26T07:33:18.572Z,54.37
2019-04-26T07:36:29.813Z,58.09
2019-04-26T07:40:17.835Z,58.92
2019-04-26T07:43:19.168Z,61.30
2019-04-26T07:46:37.699Z,62.97
2019-04-26T07:50:07.587Z,63.66
2019-04-26T07:53:52.296Z,64.81
2019-04-26T07:57:04.609Z,66.13
2019-04-26T08:00:20.652Z,65.59
2019-04-26T08:03:22.100Z,66.54
2019-04-26T08:06:05.798Z,67.58
2019-04-26T08:08:52.305Z,67.92
2019-04-26T08:11:41.308Z,68.70
2019-04-26T08:14:40.906Z,69.63
2019-04-26T08:17:30.966Z,70.84
2019-04-26T08:20:43.076Z,71.61
2019-04-26T08:23:42.273Z,72.17
2019-04-26T08:26:15.508Z,71.13
2019-04-26T08:28:51.233Z,71.44
2019-04-26T08:31:27.552Z,71.86
2019-04-26T08:34:06.068Z,72.36
2019-04-26T08:36:48.110Z,73.14
2019-04-26T08:39:32.510Z,74.21
2019-04-26T08:42:03.368Z,74.96
2019-04-26T08:45:08.870Z,74.03
2019-04-26T08:47:57.289Z,74.72
2019-04-26T08:50:38.370Z,75.18
2019-04-26T08:53:11.649Z,76.60
2019-04-26T08:55:45.896Z,76.15
2019-04-26T08:58:21.020Z,75.58
2019-04-26T09:01:06.591Z,75.37
2019-04-26T09:03:57.622Z,75.28
2019-04-26T09:06:57.654Z,75.15
2019-04-26T09:09:34.640Z,74.71
2019-04-26T09:12:22.533Z,74.89
2019-04-26T09:14:52.435Z,75.19
2019-04-26T09:17:27.673Z,74.88
2019-04-26T09:19:58.350Z,75.66
2019-04-26T09:22:44.886Z,76.10
2019-04-26T09:25:30.257Z,76.78
2019-04-26T09:28:07.621Z,75.26
2019-04-26T09:30:58.423Z,75.03
2019-04-26T09:33:39.455Z,74.70
2019-04-26T09:36:11.651Z,74.79
2019-04-26T09:38:43.635Z,75.29
2019-04-26T09:41:15.637Z,75.15
2019-04-26T09:43:54.910Z,74.17
2019-04-26T09:46:44.431Z,73.59
2019-04-26T09:49:32.693Z,72.71
2019-04-26T09:52:06.469Z,72.34
2019-04-26T09:54:38.448Z,73.17
2019-04-26T09:57:10.423Z,72.80
2019-04-26T09:59:42.415Z,72.18
2019-04-26T10:02:14.619Z,72.61
2019-04-26T10:04:46.579Z,72.88
2019-04-26T10:07:18.580Z,73.61
2019-04-26T10:09:51.733Z,73.72
2019-04-26T10:12:33.538Z,74.41
2019-04-26T10:15:22.542Z,74.62
2019-04-26T10:17:53.761Z,74.08
2019-04-26T10:20:25.900Z,74.50
2019-04-26T10:22:57.860Z,73.96
2019-04-26T10:25:29.830Z,72.42
2019-04-26T10:28:01.848Z,70.39
2019-04-26T10:30:33.807Z,68.39
2019-04-26T10:33:05.814Z,66.45
2019-04-26T10:35:37.788Z,66.97
2019-04-26T10:38:10.168Z,68.47
2019-04-26T10:40:42.258Z,70.44
2019-04-26T10:43:14.295Z,71.89
2019-04-26T10:45:53.523Z,72.38
2019-04-26T10:48:23.074Z,71.67
2019-04-26T10:50:54.358Z,70.80
2019-04-26T10:53:50.385Z,69.40
2019-04-26T10:56:46.880Z,67.30
2019-04-26T10:59:39.903Z,67.02
2019-04-26T11:02:15.799Z,68.39
2019-04-26T11:04:47.888Z,67.72
2019-04-26T11:07:20.242Z,66.98
2019-04-26T11:09:52.240Z,65.87
2019-04-26T11:12:24.208Z,65.43
2019-04-26T11:14:56.911Z,65.34
2019-04-26T11:17:29.285Z,64.17
2019-04-26T11:20:01.717Z,62.74
2019-04-26T11:22:37.507Z,59.89
2019-04-26T11:25:07.628Z,57.03
2019-04-26T11:27:40.256Z,55.77
2019-04-26T11:30:20.582Z,55.23
2019-04-26T11:32:47.728Z,53.66
2019-04-26T11:35:20.216Z,50.32
2019-04-26T11:37:55.298Z,47.54
2019-04-26T11:40:26.083Z,45.72
2019-04-26T11:42:58.369Z,44.08
2019-04-26T11:45:30.869Z,42.41
2019-04-26T11:48:03.351Z,40.96
2019-04-26T11:50:35.616Z,40.20
2019-04-26T11:53:10.250Z,39.25
2019-04-26T11:55:41.381Z,38.59
2019-04-26T11:58:13.373Z,38.06
2019-04-26T12:00:50.489Z,37.45
2019-04-26T12:03:24.945Z,36.81
2019-04-26T12:06:22.641Z,36.33
2019-04-26T12:09:01.484Z,36.24
2019-04-26T12:11:35.280Z,36.16
2019-04-26T12:14:19.378Z,36.22
2019-04-26T12:16:48.082Z,36.47
2019-04-26T12:19:18.253Z,36.58
2019-04-26T12:21:48.710Z,36.51
2019-04-26T12:24:20.752Z,36.40
2019-04-26T12:26:56.026Z,36.31
2019-04-26T12:29:26.432Z,36.08
2019-04-26T12:31:58.800Z,35.96
2019-04-26T12:34:31.127Z,35.72
2019-04-26T12:37:03.263Z,35.42
2019-04-26T12:39:36.625Z,35.27
2019-04-26T12:42:12.236Z,35.15
2019-04-26T12:45:12.263Z,35.00
2019-04-26T12:47:51.630Z,35.07
2019-04-26T12:50:23.601Z,35.12
2019-04-26T12:52:56.073Z,35.25
2019-04-26T12:55:29.317Z,35.29
2019-04-26T12:58:01.481Z,35.47
2019-04-26T13:00:37.608Z,35.39
2019-04-26T13:03:19.737Z,35.33
2019-04-26T13:05:41.382Z,35.12
2019-04-26T13:08:17.085Z,35.04
2019-04-26T13:11:07.997Z,34.44
2019-04-26T13:13:55.279Z,33.90
2019-04-26T13:16:35.375Z,33.50
2019-04-26T13:19:07.404Z,33.62
2019-04-26T13:21:40.083Z,33.59
2019-04-26T13:24:12.279Z,33.73
2019-04-26T13:26:44.403Z,33.99
2019-04-26T13:29:16.401Z,34.03
2019-04-26T13:31:48.462Z,34.04
2019-04-26T13:34:20.825Z,33.92
2019-04-26T13:36:52.803Z,33.82
2019-04-26T13:39:25.787Z,33.73
2019-04-26T13:42:04.538Z,33.60
2019-04-26T13:44:49.178Z,33.17
2019-04-26T13:47:40.013Z,32.67
2019-04-26T13:50:26.658Z,32.30
2019-04-26T13:52:59.470Z,32.02
2019-04-26T13:55:33.769Z,31.87
2019-04-26T13:58:05.503Z,31.69
2019-04-26T14:00:39.791Z,31.59
2019-04-26T14:03:11.711Z,31.64
2019-04-26T14:05:43.705Z,31.72
2019-04-26T14:08:17.651Z,31.59
2019-04-26T14:10:51.359Z,31.47
2019-04-26T14:13:25.046Z,31.39
2019-04-26T14:15:57.243Z,31.42
2019-04-26T14:18:29.289Z,31.43
2019-04-26T14:21:01.876Z,31.51
2019-04-26T14:24:01.860Z,31.55
2019-04-26T14:26:39.983Z,31.62
2019-04-26T14:29:11.311Z,31.75
2019-04-26T14:31:43.398Z,31.81
2019-04-26T14:34:15.421Z,31.78
2019-04-26T14:36:47.496Z,31.66
2019-04-26T14:39:21.082Z,31.62
2019-04-26T14:41:57.125Z,31.64
2019-04-26T14:44:27.137Z,31.70
2019-04-26T14:47:13.175Z,31.73
2019-04-26T14:49:39.196Z,31.69
2019-04-26T14:52:08.986Z,31.63
2019-04-26T14:54:45.885Z,31.53
2019-04-26T14:57:22.515Z,31.55
2019-04-26T14:59:56.720Z,31.38
2019-04-26T15:03:05.463Z,31.23
2019-04-26T15:05:59.080Z,31.22
2019-04-26T15:08:32.589Z,31.35
2019-04-26T15:11:05.150Z,31.45
2019-04-26T15:13:40.344Z,31.58
2019-04-26T15:16:13.693Z,31.72
2019-04-26T15:18:45.110Z,31.88
2019-04-26T15:21:17.145Z,31.88
2019-04-26T15:23:49.179Z,31.87
2019-04-26T15:26:24.236Z,31.75
2019-04-26T15:28:54.949Z,31.52
2019-04-26T15:31:26.939Z,31.39
2019-04-26T15:33:58.946Z,31.18
2019-04-26T15:36:31.275Z,30.95
2019-04-26T15:39:05.089Z,30.77
2019-04-26T15:41:54.346Z,30.60
2019-04-26T15:44:48.139Z,30.44
2019-04-26T15:47:34.343Z,30.22
2019-04-26T15:50:23.209Z,30.07
2019-04-26T15:52:55.401Z,29.94
2019-04-26T15:55:27.387Z,29.87
2019-04-26T15:58:02.692Z,29.85
2019-04-26T16:00:35.439Z,29.89
2019-04-26T16:03:07.487Z,29.90
2019-04-26T16:05:40.040Z,29.90
2019-04-26T16:08:13.044Z,29.86
2019-04-26T16:10:45.168Z,29.86
2019-04-26T16:13:20.926Z,29.81
2019-04-26T16:15:51.381Z,29.75
2019-04-26T16:18:23.376Z,29.73
2019-04-26T16:20:55.407Z,29.69
2019-04-26T16:23:38.377Z,29.61
2019-04-26T16:26:02.636Z,29.61
2019-04-26T16:28:53.597Z,29.68
2019-04-26T16:31:35.469Z,29.67
2019-04-26T16:34:11.666Z,29.59
2019-04-26T16:36:45.234Z,29.48
2019-04-26T16:39:19.703Z,29.29
2019-04-26T16:41:52.375Z,29.10
2019-04-26T16:44:29.857Z,28.91
2019-04-26T16:47:01.734Z,28.72
2019-04-26T16:49:35.062Z,28.53
2019-04-26T16:52:07.255Z,28.35
2019-04-26T16:54:40.608Z,28.16
2019-04-26T16:57:13.981Z,28.00
2019-04-26T16:59:49.179Z,27.82
2019-04-26T17:02:25.555Z,27.69
2019-04-26T17:04:54.084Z,27.63
2019-04-26T17:07:27.455Z,27.48
2019-04-26T17:10:00.329Z,27.36
2019-04-26T17:12:33.159Z,27.19
2019-04-26T17:15:06.018Z,26.99
2019-04-26T17:17:41.263Z,26.84
2019-04-26T17:20:11.999Z,26.70
2019-04-26T17:22:57.003Z,26.51
2019-04-26T17:25:49.493Z,26.37
2019-04-26T17:28:23.028Z,26.20
2019-04-26T17:30:55.473Z,26.00
2019-04-26T17:33:28.209Z,25.87
2019-04-26T17:36:01.234Z,25.75
2019-04-26T17:38:35.179Z,25.64
2019-04-26T17:41:10.930Z,25.53
2019-04-26T17:43:46.950Z,25.46
2019-04-26T17:46:17.936Z,25.36
2019-04-26T17:48:49.410Z,25.28
2019-04-26T17:51:23.226Z,25.17
2019-04-26T17:54:18.925Z,25.02
2019-04-26T17:56:31.462Z,24.87
2019-04-26T17:59:08.962Z,24.82
2019-04-26T18:01:45.204Z,24.84
2019-04-26T18:04:11.271Z,24.71
2019-04-26T18:06:45.381Z,24.61
2019-04-26T18:09:38.247Z,24.51
2019-04-26T18:11:51.234Z,24.43
2019-04-26T18:14:29.650Z,24.29
2019-04-26T18:17:07.837Z,24.17
2019-04-26T18:19:53.475Z,24.10
2019-04-26T18:22:53.125Z,24.03
2019-04-26T18:25:25.350Z,23.97
2019-04-26T18:27:57.363Z,23.92
2019-04-26T18:30:30.101Z,23.89
2019-04-26T18:33:02.932Z,23.84
2019-04-26T18:35:35.092Z,23.78
2019-04-26T18:38:08.520Z,23.75
2019-04-26T18:40:58.919Z,23.68
2019-04-26T18:43:18.888Z,23.61
2019-04-26T18:45:50.074Z,23.63
2019-04-26T18:48:23.646Z,23.56
2019-04-26T18:50:56.015Z,23.49
2019-04-26T18:53:47.207Z,23.46
2019-04-26T18:56:19.393Z,23.41
2019-04-26T18:58:51.670Z,23.36
2019-04-26T19:01:23.828Z,23.31
2019-04-26T19:03:55.847Z,23.33
2019-04-26T19:06:31.855Z,23.28
2019-04-26T19:09:05.659Z,23.28
2019-04-26T19:11:35.722Z,23.22
2019-04-26T19:14:26.699Z,23.12
2019-04-26T19:17:22.055Z,23.09
2019-04-26T19:20:11.565Z,23.02
2019-04-26T19:22:52.008Z,22.95
2019-04-26T19:25:23.877Z,22.94
2019-04-26T19:27:58.699Z,22.91
2019-04-26T19:30:29.541Z,22.90
2019-04-26T19:33:02.063Z,22.87
2019-04-26T19:35:34.257Z,22.80
2019-04-26T19:38:07.512Z,22.72
2019-04-26T19:40:46.064Z,22.71
2019-04-26T19:43:27.713Z,22.67
2019-04-26T19:46:12.763Z,22.69
2019-04-26T19:49:09.825Z,22.66
2019-04-26T19:52:03.895Z,22.55
2019-04-26T19:54:42.722Z,22.40
2019-04-26T19:57:18.764Z,22.27
2019-04-26T19:59:52.597Z,22.19
2019-04-26T20:02:35.821Z,22.15
2019-04-26T20:05:02.350Z,22.12
2019-04-26T20:07:34.876Z,21.99
2019-04-26T20:10:07.056Z,21.88
2019-04-26T20:12:39.037Z,21.80
2019-04-26T20:15:25.348Z,21.80
2019-04-26T20:17:52.513Z,21.79
2019-04-26T20:20:23.233Z,21.78
2019-04-26T20:22:54.430Z,21.75
2019-04-26T20:25:26.407Z,21.69
2019-04-26T20:28:03.169Z,21.66
2019-04-26T20:31:07.683Z,21.60
2019-04-26T20:33:37.231Z,21.56
2019-04-26T20:36:09.235Z,21.55
2019-04-26T20:38:45.639Z,21.53
2019-04-26T20:41:15.164Z,21.43
2019-04-26T20:44:02.423Z,21.40
2019-04-26T20:46:24.883Z,21.44
2019-04-26T20:48:54.976Z,21.42
2019-04-26T20:51:27.012Z,21.33
2019-04-26T20:53:59.043Z,21.25
2019-04-26T20:56:31.743Z,21.21
2019-04-26T20:59:04.706Z,21.18
2019-04-26T21:01:36.673Z,21.13
2019-04-26T21:04:08.685Z,21.18
2019-04-26T21:06:41.124Z,21.12
2019-04-26T21:09:17.801Z,21.02
2019-04-26T21:11:51.507Z,21.07
2019-04-26T21:14:23.600Z,20.93
2019-04-26T21:16:55.591Z,20.89
2019-04-26T21:19:27.646Z,20.85
2019-04-26T21:22:00.164Z,20.83
2019-04-26T21:24:36.761Z,20.80
2019-04-26T21:27:25.877Z,20.80
2019-04-26T21:30:17.120Z,20.75
2019-04-26T21:33:16.905Z,20.68
2019-04-26T21:36:07.286Z,20.57
2019-04-26T21:38:47.445Z,20.60
2019-04-26T21:41:25.424Z,20.57
2019-04-26T21:43:57.410Z,20.48
2019-04-26T21:46:29.516Z,20.44
2019-04-26T21:49:01.560Z,20.47
2019-04-26T21:51:34.079Z,20.39
2019-04-26T21:54:06.367Z,20.43
2019-04-26T21:56:42.766Z,20.52
2019-04-26T21:59:13.818Z,20.53
2019-04-26T22:01:48.346Z,20.37
2019-04-26T22:04:20.241Z,20.36
2019-04-26T22:06:53.470Z,20.24
2019-04-26T22:09:47.767Z,20.21
2019-04-26T22:12:20.931Z,20.15
2019-04-26T22:15:01.057Z,20.13
2019-04-26T22:17:40.654Z,20.12
2019-04-26T22:20:29.933Z,20.06
2019-04-26T22:23:25.400Z,20.08
2019-04-26T22:26:00.199Z,19.96
2019-04-26T22:28:35.949Z,19.98
2019-04-26T22:31:08.505Z,20.12
2019-04-26T22:33:38.998Z,20.09
2019-04-26T22:36:13.033Z,20.03
2019-04-26T22:38:44.918Z,19.99
2019-04-26T22:41:16.838Z,20.00
2019-04-26T22:43:59.833Z,19.91
2019-04-26T22:46:49.743Z,19.94
2019-04-26T22:49:23.205Z,19.88
2019-04-26T22:51:55.251Z,19.89
2019-04-26T22:54:27.268Z,19.98
2019-04-26T22:56:59.231Z,19.86
2019-04-26T22:59:31.277Z,19.82
2019-04-26T23:02:04.310Z,19.80
2019-04-26T23:04:36.275Z,19.71
2019-04-26T23:07:09.533Z,19.64
2019-04-26T23:09:45.782Z,19.66
2019-04-26T23:12:53.975Z,19.59
2019-04-26T23:15:43.245Z,19.53
2019-04-26T23:18:34.246Z,19.47
2019-04-26T23:21:27.334Z,19.40
2019-04-26T23:23:59.337Z,19.45
2019-04-26T23:26:31.403Z,19.39
2019-04-26T23:29:03.810Z,19.41
2019-04-26T23:31:37.475Z,19.35
2019-04-26T23:34:09.798Z,19.34
2019-04-26T23:36:43.578Z,19.27
2019-04-26T23:39:15.606Z,19.25
2019-04-26T23:41:47.535Z,19.27
2019-04-26T23:44:19.980Z,19.18
2019-04-26T23:46:54.964Z,19.08
2019-04-26T23:49:25.649Z,19.01
2019-04-26T23:51:57.687Z,19.02
2019-04-26T23:54:32.265Z,19.00
2019-04-26T23:57:03.388Z,18.94
2019-04-26T23:59:35.334Z,18.88
